sensor_id;sensor_type;location;lat;lon;timestamp;pressure;altitude;pressure_sealevel;temperature;humidity
63901;BME280;50538;53.482;10.294;2024-01-15T00:02:27;98821.03;;;1.30;100.00
63901;BME280;50538;53.482;10.294;2024-01-15T00:12:27;98805.34;;;1.30;100.00
63901;BME280;50538;53.482;10.294;2024-01-15T00:22:28;98792.81;;;1.33;100.00
63901;BME280;50538;53.482;10.294;2024-01-15T00:32:28;98793.97;;;2.15;100.00
63901;BME280;50538;53.482;10.294;2024-01-15T00:42:32;98783.50;;;1.65;100.00
63901;BME280;50538;53.482;10.294;2024-01-15T00:52:33;98748.31;;;1.59;100.00
63901;BME280;50538;53.482;10.294;2024-01-15T01:02:34;98752.41;;;1.62;100.00
63901;BME280;50538;53.482;10.294;2024-01-15T01:12:36;98725.13;;;1.64;100.00
63901;BME280;50538;53.482;10.294;2024-01-15T01:22:36;98709.91;;;1.60;100.00
63901;BME280;50538;53.482;10.294;2024-01-15T01:32:37;98689.97;;;1.67;100.00
63901;BME280;50538;53.482;10.294;2024-01-15T01:42:37;98686.09;;;1.79;100.00
63901;BME280;50538;53.482;10.294;2024-01-15T01:52:38;98668.75;;;1.94;100.00
63901;BME280;50538;53.482;10.294;2024-01-15T02:02:39;98678.28;;;2.20;100.00
63901;BME280;50538;53.482;10.294;2024-01-15T02:12:40;98685.81;;;2.23;100.00
63901;BME280;50538;53.482;10.294;2024-01-15T02:22:40;98675.50;;;2.29;100.00
63901;BME280;50538;53.482;10.294;2024-01-15T02:32:41;98677.97;;;2.23;100.00
63901;BME280;50538;53.482;10.294;2024-01-15T02:42:42;98656.19;;;1.98;100.00
63901;BME280;50538;53.482;10.294;2024-01-15T02:52:43;98663.88;;;2.08;100.00
63901;BME280;50538;53.482;10.294;2024-01-15T03:02:44;98653.41;;;2.16;100.00
63901;BME280;50538;53.482;10.294;2024-01-15T03:12:45;98671.25;;;2.28;100.00
63901;BME280;50538;53.482;10.294;2024-01-15T03:22:46;98648.84;;;2.26;100.00
63901;BME280;50538;53.482;10.294;2024-01-15T03:32:46;98675.81;;;2.18;100.00
63901;BME280;50538;53.482;10.294;2024-01-15T03:42:47;98683.19;;;2.15;100.00
63901;BME280;50538;53.482;10.294;2024-01-15T03:52:47;98680.88;;;2.03;100.00
63901;BME280;50538;53.482;10.294;2024-01-15T04:02:48;98683.34;;;2.05;100.00
63901;BME280;50538;53.482;10.294;2024-01-15T04:12:48;98680.25;;;2.10;100.00
63901;BME280;50538;53.482;10.294;2024-01-15T04:22:49;98692.34;;;2.11;100.00
63901;BME280;50538;53.482;10.294;2024-01-15T04:32:50;98674.03;;;2.11;100.00
63901;BME280;50538;53.482;10.294;2024-01-15T04:42:53;98677.78;;;2.08;100.00
63901;BME280;50538;53.482;10.294;2024-01-15T04:52:54;98696.75;;;2.02;100.00
63901;BME280;50538;53.482;10.294;2024-01-15T05:02:55;98692.13;;;1.72;100.00
63901;BME280;50538;53.482;10.294;2024-01-15T05:12:56;98698.00;;;1.65;100.00
63901;BME280;50538;53.482;10.294;2024-01-15T05:22:57;98702.56;;;1.63;100.00
63901;BME280;50538;53.482;10.294;2024-01-15T05:32:59;98704.19;;;1.64;100.00
63901;BME280;50538;53.482;10.294;2024-01-15T05:43:07;98700.44;;;1.67;100.00
63901;BME280;50538;53.482;10.294;2024-01-15T05:53:12;98706.19;;;1.71;100.00
63901;BME280;50538;53.482;10.294;2024-01-15T06:03:15;98692.47;;;1.77;100.00
63901;BME280;50538;53.482;10.294;2024-01-15T06:13:16;98716.34;;;1.82;100.00
63901;BME280;50538;53.482;10.294;2024-01-15T06:23:17;98723.53;;;1.88;100.00
63901;BME280;50538;53.482;10.294;2024-01-15T06:33:19;98725.34;;;1.95;100.00
63901;BME280;50538;53.482;10.294;2024-01-15T06:43:19;98731.09;;;1.99;100.00
63901;BME280;50538;53.482;10.294;2024-01-15T06:53:20;98728.31;;;2.00;100.00
63901;BME280;50538;53.482;10.294;2024-01-15T07:03:21;98721.94;;;2.03;100.00
63901;BME280;50538;53.482;10.294;2024-01-15T07:13:27;98718.66;;;2.01;100.00
63901;BME280;50538;53.482;10.294;2024-01-15T07:23:28;98728.94;;;1.94;100.00
63901;BME280;50538;53.482;10.294;2024-01-15T07:33:38;98745.13;;;1.90;100.00
63901;BME280;50538;53.482;10.294;2024-01-15T07:43:43;98752.31;;;1.88;100.00
63901;BME280;50538;53.482;10.294;2024-01-15T07:53:45;98763.97;;;1.85;100.00
63901;BME280;50538;53.482;10.294;2024-01-15T08:04:18;98754.63;;;1.91;100.00
63901;BME280;50538;53.482;10.294;2024-01-15T08:14:25;98770.81;;;1.94;100.00
63901;BME280;50538;53.482;10.294;2024-01-15T08:24:59;98754.81;;;1.97;100.00
63901;BME280;50538;53.482;10.294;2024-01-15T08:35:03;98763.00;;;2.02;100.00
63901;BME280;50538;53.482;10.294;2024-01-15T08:45:05;98788.84;;;2.06;100.00
63901;BME280;50538;53.482;10.294;2024-01-15T08:55:06;98803.59;;;2.07;100.00
63901;BME280;50538;53.482;10.294;2024-01-15T09:05:07;98805.84;;;2.01;100.00
63901;BME280;50538;53.482;10.294;2024-01-15T09:15:09;98824.03;;;2.03;100.00
63901;BME280;50538;53.482;10.294;2024-01-15T09:25:17;98807.31;;;1.96;100.00
63901;BME280;50538;53.482;10.294;2024-01-15T09:35:20;98821.53;;;1.93;100.00
63901;BME280;50538;53.482;10.294;2024-01-15T09:45:35;98848.66;;;1.84;100.00
63901;BME280;50538;53.482;10.294;2024-01-15T09:56:02;98868.19;;;1.64;100.00
63901;BME280;50538;53.482;10.294;2024-01-15T10:06:07;98852.03;;;1.43;100.00
63901;BME280;50538;53.482;10.294;2024-01-15T10:16:11;98868.25;;;1.28;100.00
63901;BME280;50538;53.482;10.294;2024-01-15T10:26:24;98888.78;;;1.15;100.00
63901;BME280;50538;53.482;10.294;2024-01-15T10:36:30;98905.72;;;1.11;100.00
63901;BME280;50538;53.482;10.294;2024-01-15T10:46:32;98905.94;;;1.18;100.00
63901;BME280;50538;53.482;10.294;2024-01-15T10:56:39;98913.19;;;1.24;100.00
63901;BME280;50538;53.482;10.294;2024-01-15T11:07:12;98919.72;;;1.28;100.00
63901;BME280;50538;53.482;10.294;2024-01-15T11:17:23;98913.69;;;1.27;100.00
63901;BME280;50538;53.482;10.294;2024-01-15T11:27:44;98921.19;;;1.22;100.00
63901;BME280;50538;53.482;10.294;2024-01-15T11:38:01;98918.88;;;1.19;100.00
63901;BME280;50538;53.482;10.294;2024-01-15T11:48:16;98928.66;;;1.17;100.00
63901;BME280;50538;53.482;10.294;2024-01-15T11:58:37;98934.84;;;1.16;100.00
63901;BME280;50538;53.482;10.294;2024-01-15T12:08:46;98950.22;;;1.19;100.00
63901;BME280;50538;53.482;10.294;2024-01-15T12:18:51;98955.47;;;1.19;100.00
63901;BME280;50538;53.482;10.294;2024-01-15T12:28:54;98956.44;;;1.18;100.00
63901;BME280;50538;53.482;10.294;2024-01-15T12:38:59;98961.66;;;1.18;100.00
63901;BME280;50538;53.482;10.294;2024-01-15T12:49:00;98979.66;;;1.21;100.00
63901;BME280;50538;53.482;10.294;2024-01-15T12:59:00;98983.28;;;1.28;100.00
63901;BME280;50538;53.482;10.294;2024-01-15T13:09:18;98995.09;;;1.32;100.00
63901;BME280;50538;53.482;10.294;2024-01-15T13:19:21;98991.06;;;1.38;100.00
63901;BME280;50538;53.482;10.294;2024-01-15T13:29:29;98996.16;;;1.40;100.00
63901;BME280;50538;53.482;10.294;2024-01-15T13:39:31;99014.59;;;1.38;100.00
63901;BME280;50538;53.482;10.294;2024-01-15T13:49:48;99023.56;;;1.35;100.00
63901;BME280;50538;53.482;10.294;2024-01-15T14:00:15;99027.44;;;1.31;100.00
63901;BME280;50538;53.482;10.294;2024-01-15T14:10:37;99042.97;;;1.33;100.00
63901;BME280;50538;53.482;10.294;2024-01-15T14:21:01;99054.56;;;1.30;100.00
63901;BME280;50538;53.482;10.294;2024-01-15T14:31:18;99048.50;;;1.30;100.00
63901;BME280;50538;53.482;10.294;2024-01-15T14:41:40;99057.66;;;1.26;100.00
63901;BME280;50538;53.482;10.294;2024-01-15T14:51:50;99079.16;;;1.20;100.00
63901;BME280;50538;53.482;10.294;2024-01-15T15:02:10;99085.94;;;1.13;100.00
63901;BME280;50538;53.482;10.294;2024-01-15T15:12:26;99102.34;;;1.05;100.00
63901;BME280;50538;53.482;10.294;2024-01-15T15:22:51;99122.59;;;0.93;100.00
63901;BME280;50538;53.482;10.294;2024-01-15T15:33:06;99140.63;;;0.87;100.00
63901;BME280;50538;53.482;10.294;2024-01-15T15:43:11;99155.53;;;0.77;100.00
63901;BME280;50538;53.482;10.294;2024-01-15T15:53:22;99164.91;;;0.69;100.00
63901;BME280;50538;53.482;10.294;2024-01-15T16:03:22;99188.03;;;0.64;100.00
63901;BME280;50538;53.482;10.294;2024-01-15T16:13:24;99200.00;;;0.57;100.00
63901;BME280;50538;53.482;10.294;2024-01-15T16:23:31;99205.91;;;0.50;100.00
63901;BME280;50538;53.482;10.294;2024-01-15T16:33:32;99213.19;;;0.46;100.00
63901;BME280;50538;53.482;10.294;2024-01-15T16:43:32;99229.41;;;0.40;100.00
63901;BME280;50538;53.482;10.294;2024-01-15T16:53:33;99235.19;;;0.34;100.00
63901;BME280;50538;53.482;10.294;2024-01-15T17:03:33;99238.34;;;0.28;100.00
63901;BME280;50538;53.482;10.294;2024-01-15T17:13:34;99259.50;;;0.25;100.00
63901;BME280;50538;53.482;10.294;2024-01-15T17:23:34;99269.94;;;0.25;100.00
63901;BME280;50538;53.482;10.294;2024-01-15T17:33:35;99281.19;;;0.25;100.00
63901;BME280;50538;53.482;10.294;2024-01-15T17:43:35;99290.53;;;0.28;100.00
63901;BME280;50538;53.482;10.294;2024-01-15T17:53:36;99291.78;;;0.24;100.00
63901;BME280;50538;53.482;10.294;2024-01-15T18:03:37;99305.09;;;0.21;100.00
63901;BME280;50538;53.482;10.294;2024-01-15T18:13:39;99307.56;;;0.22;100.00
63901;BME280;50538;53.482;10.294;2024-01-15T18:23:39;99323.09;;;0.24;100.00
63901;BME280;50538;53.482;10.294;2024-01-15T18:33:41;99347.28;;;0.26;100.00
63901;BME280;50538;53.482;10.294;2024-01-15T18:43:41;99353.06;;;0.29;100.00
63901;BME280;50538;53.482;10.294;2024-01-15T18:53:42;99338.09;;;0.31;100.00
63901;BME280;50538;53.482;10.294;2024-01-15T19:03:43;99349.34;;;0.32;100.00
63901;BME280;50538;53.482;10.294;2024-01-15T19:13:44;99351.16;;;0.31;100.00
63901;BME280;50538;53.482;10.294;2024-01-15T19:23:45;99336.16;;;0.33;100.00
63901;BME280;50538;53.482;10.294;2024-01-15T19:33:45;99344.81;;;0.34;100.00
63901;BME280;50538;53.482;10.294;2024-01-15T19:43:47;99340.00;;;0.29;100.00
63901;BME280;50538;53.482;10.294;2024-01-15T19:53:48;99343.56;;;0.28;100.00
63901;BME280;50538;53.482;10.294;2024-01-15T20:03:51;99347.00;;;0.29;100.00
63901;BME280;50538;53.482;10.294;2024-01-15T20:13:51;99345.91;;;0.31;100.00
63901;BME280;50538;53.482;10.294;2024-01-15T20:23:52;99360.22;;;0.37;100.00
63901;BME280;50538;53.482;10.294;2024-01-15T20:33:52;99376.88;;;0.46;100.00
63901;BME280;50538;53.482;10.294;2024-01-15T20:43:52;99377.00;;;0.44;100.00
63901;BME280;50538;53.482;10.294;2024-01-15T20:53:53;99399.16;;;0.50;100.00
63901;BME280;50538;53.482;10.294;2024-01-15T21:03:54;99429.13;;;0.55;100.00
63901;BME280;50538;53.482;10.294;2024-01-15T21:13:55;99446.31;;;0.58;100.00
63901;BME280;50538;53.482;10.294;2024-01-15T21:23:57;99455.09;;;0.57;100.00
63901;BME280;50538;53.482;10.294;2024-01-15T21:33:58;99457.00;;;0.45;100.00
63901;BME280;50538;53.482;10.294;2024-01-15T21:44:00;99464.56;;;0.48;100.00
63901;BME280;50538;53.482;10.294;2024-01-15T21:54:06;99492.56;;;0.36;100.00
63901;BME280;50538;53.482;10.294;2024-01-15T22:04:09;99510.53;;;0.30;100.00
63901;BME280;50538;53.482;10.294;2024-01-15T22:14:11;99516.66;;;0.19;100.00
63901;BME280;50538;53.482;10.294;2024-01-15T22:24:12;99537.09;;;0.14;100.00
63901;BME280;50538;53.482;10.294;2024-01-15T22:34:14;99567.75;;;0.12;100.00
63901;BME280;50538;53.482;10.294;2024-01-15T22:44:17;99589.00;;;0.08;100.00
63901;BME280;50538;53.482;10.294;2024-01-15T22:54:18;99610.38;;;0.01;100.00
63901;BME280;50538;53.482;10.294;2024-01-15T23:04:19;99650.00;;;-0.05;100.00
63901;BME280;50538;53.482;10.294;2024-01-15T23:14:34;99672.59;;;-0.15;100.00
63901;BME280;50538;53.482;10.294;2024-01-15T23:24:35;99675.06;;;-0.13;100.00
63901;BME280;50538;53.482;10.294;2024-01-15T23:34:37;99679.34;;;-0.12;100.00
63901;BME280;50538;53.482;10.294;2024-01-15T23:44:37;99701.88;;;-0.22;100.00
63901;BME280;50538;53.482;10.294;2024-01-15T23:54:41;99718.38;;;-0.33;100.00
